createdAt,value
2019-04-28T00:01:22.172Z,29.35
2019-04-28T00:03:53.628Z,29.15
2019-04-28T00:06:25.265Z,28.47
2019-04-28T00:09:01.610Z,28.87
2019-04-28T00:11:32.481Z,28.60
2019-04-28T00:14:03.894Z,28.50
2019-04-28T00:16:35.378Z,28.50
2019-04-28T00:19:07.917Z,28.95
2019-04-28T00:21:41.502Z,30.35
2019-04-28T00:24:13.975Z,31.33
2019-04-28T00:26:46.603Z,31.25
2019-04-28T00:29:18.101Z,33.67
2019-04-28T00:31:51.166Z,28.90
2019-04-28T00:34:22.646Z,30.72
2019-04-28T00:36:55.175Z,30.45
2019-04-28T00:39:26.472Z,29.67
2019-04-28T00:41:57.796Z,29.67
2019-04-28T00:44:29.239Z,28.07
2019-04-28T00:47:01.218Z,33.80
2019-04-28T00:49:33.688Z,26.90
2019-04-28T00:52:05.146Z,26.12
2019-04-28T00:54:36.574Z,25.77
2019-04-28T00:57:08.157Z,26.33
2019-04-28T00:59:51.996Z,26.52
2019-04-28T01:02:13.427Z,24.40
2019-04-28T01:04:44.955Z,23.07
2019-04-28T01:07:16.389Z,23.40
2019-04-28T01:09:47.837Z,23.32
2019-04-28T01:12:20.686Z,25.90
2019-04-28T01:14:52.929Z,21.95
2019-04-28T01:17:26.007Z,21.17
2019-04-28T01:19:59.790Z,22.05
2019-04-28T01:22:31.322Z,19.17
2019-04-28T01:25:02.735Z,16.15
2019-04-28T01:27:34.078Z,16.87
2019-04-28T01:30:10.658Z,15.00
2019-04-28T01:32:41.622Z,15.98
2019-04-28T01:35:13.389Z,16.17
2019-04-28T01:37:44.893Z,13.85
2019-04-28T01:40:16.216Z,13.88
2019-04-28T01:42:50.428Z,14.38
2019-04-28T01:45:20.755Z,14.60
2019-04-28T01:47:52.075Z,14.83
2019-04-28T01:50:23.332Z,14.45
2019-04-28T01:52:54.810Z,15.60
2019-04-28T01:55:26.476Z,19.50
2019-04-28T01:57:59.569Z,15.65
2019-04-28T02:00:30.941Z,15.83
2019-04-28T02:03:02.306Z,13.25
2019-04-28T02:05:33.698Z,11.83
2019-04-28T02:08:05.170Z,13.13
2019-04-28T02:10:36.579Z,11.73
2019-04-28T02:13:09.591Z,13.05
2019-04-28T02:15:40.741Z,10.40
2019-04-28T02:18:11.974Z,11.97
2019-04-28T02:20:44.485Z,12.40
2019-04-28T02:23:17.045Z,10.72
2019-04-28T02:25:49.776Z,10.78
2019-04-28T02:28:21.230Z,13.88
2019-04-28T02:30:53.745Z,12.63
2019-04-28T02:33:25.584Z,11.25
2019-04-28T02:36:01.441Z,12.58
2019-04-28T02:38:34.282Z,12.30
2019-04-28T02:41:05.885Z,10.72
2019-04-28T02:43:37.432Z,10.28
2019-04-28T02:46:10.550Z,10.63
2019-04-28T02:48:41.429Z,13.70
2019-04-28T02:51:14.253Z,10.95
2019-04-28T02:53:46.291Z,12.05
2019-04-28T02:56:17.633Z,10.10
2019-04-28T02:58:51.080Z,11.73
2019-04-28T03:01:26.071Z,14.05
2019-04-28T03:03:54.499Z,12.28
2019-04-28T03:06:25.955Z,12.25
2019-04-28T03:08:57.270Z,10.25
2019-04-28T03:11:31.213Z,10.00
2019-04-28T03:14:01.251Z,11.33
2019-04-28T03:16:32.668Z,13.70
2019-04-28T03:19:04.008Z,11.18
2019-04-28T03:21:35.597Z,14.13
2019-04-28T03:24:06.807Z,11.90
2019-04-28T03:26:42.243Z,11.53
2019-04-28T03:29:15.137Z,13.25
2019-04-28T03:32:10.219Z,11.78
2019-04-28T03:34:23.343Z,11.50
2019-04-28T03:36:53.131Z,14.43
2019-04-28T03:39:24.586Z,12.45
2019-04-28T03:41:55.911Z,12.65
2019-04-28T03:44:27.337Z,13.65
2019-04-28T03:47:02.752Z,12.78
2019-04-28T03:49:32.678Z,12.07
2019-04-28T03:52:05.955Z,12.88
2019-04-28T03:54:37.412Z,13.53
2019-04-28T03:57:11.121Z,15.53
2019-04-28T03:59:43.844Z,15.95
2019-04-28T04:02:15.673Z,11.97
2019-04-28T04:04:46.913Z,12.00
2019-04-28T04:07:21.216Z,12.70
2019-04-28T04:09:52.290Z,15.18
2019-04-28T04:12:25.007Z,12.93
2019-04-28T04:14:57.629Z,12.65
2019-04-28T04:17:30.979Z,14.63
2019-04-28T04:20:02.978Z,12.65
2019-04-28T04:22:34.405Z,12.78
2019-04-28T04:25:08.949Z,13.30
2019-04-28T04:27:40.613Z,12.50
2019-04-28T04:30:13.084Z,13.50
2019-04-28T04:32:44.530Z,12.65
2019-04-28T04:35:15.768Z,14.35
2019-04-28T04:37:50.337Z,13.53
2019-04-28T04:40:20.983Z,11.50
2019-04-28T04:42:52.297Z,15.85
2019-04-28T04:45:23.826Z,13.10
2019-04-28T04:48:01.141Z,15.98
2019-04-28T04:50:32.384Z,12.47
2019-04-28T04:53:03.730Z,13.40
2019-04-28T04:55:35.093Z,12.30
2019-04-28T04:58:10.538Z,12.53
2019-04-28T05:00:43.284Z,15.45
2019-04-28T05:03:16.133Z,13.55
2019-04-28T05:05:47.369Z,13.70
2019-04-28T05:08:20.231Z,12.43
2019-04-28T05:10:51.480Z,11.48
2019-04-28T05:13:22.875Z,13.43
2019-04-28T05:15:54.114Z,10.95
2019-04-28T05:18:25.382Z,12.85
2019-04-28T05:20:56.815Z,13.18
2019-04-28T05:23:29.742Z,16.40
2019-04-28T05:26:07.859Z,11.93
2019-04-28T05:28:36.871Z,11.68
2019-04-28T05:31:07.030Z,12.93
2019-04-28T05:33:39.595Z,15.28
2019-04-28T05:36:11.988Z,10.82
2019-04-28T05:38:43.227Z,12.13
2019-04-28T05:41:14.794Z,12.33
2019-04-28T05:43:46.243Z,11.60
2019-04-28T05:46:19.641Z,13.53
2019-04-28T05:48:51.719Z,10.98
2019-04-28T05:51:24.160Z,12.00
2019-04-28T05:53:56.874Z,10.98
2019-04-28T05:56:29.586Z,14.03
2019-04-28T05:59:02.253Z,23.67
2019-04-28T06:01:40.505Z,13.28
2019-04-28T06:04:11.313Z,11.85
2019-04-28T06:06:43.705Z,11.85
2019-04-28T06:09:16.275Z,11.12
2019-04-28T06:11:49.523Z,11.45
2019-04-28T06:14:20.576Z,14.30
2019-04-28T06:16:52.107Z,12.35
2019-04-28T06:19:23.438Z,12.85
2019-04-28T06:21:54.790Z,12.75
2019-04-28T06:24:26.210Z,11.60
2019-04-28T06:26:57.544Z,13.10
2019-04-28T06:29:28.992Z,12.75
2019-04-28T06:32:00.653Z,11.83
2019-04-28T06:34:32.162Z,10.55
2019-04-28T06:37:03.349Z,13.43
2019-04-28T06:39:34.666Z,10.10
2019-04-28T06:42:06.031Z,11.45
2019-04-28T06:44:37.282Z,10.48
2019-04-28T06:47:08.701Z,9.80
2019-04-28T06:49:40.129Z,10.50
2019-04-28T06:52:11.538Z,15.15
2019-04-28T06:54:43.020Z,11.03
2019-04-28T06:57:14.496Z,12.33
2019-04-28T06:59:45.898Z,10.40
2019-04-28T07:02:17.225Z,12.47
2019-04-28T07:05:00.716Z,11.28
2019-04-28T07:07:21.385Z,10.60
2019-04-28T07:09:54.888Z,10.55
2019-04-28T07:12:26.128Z,9.80
2019-04-28T07:14:57.384Z,9.75
2019-04-28T07:17:28.729Z,11.28
2019-04-28T07:20:01.466Z,10.38
2019-04-28T07:22:34.119Z,11.20
2019-04-28T07:25:05.826Z,10.75
2019-04-28T07:27:37.215Z,9.78
2019-04-28T07:30:10.241Z,9.38
2019-04-28T07:32:41.671Z,9.75
2019-04-28T07:35:13.376Z,9.35
2019-04-28T07:37:44.705Z,11.90
2019-04-28T07:40:19.051Z,12.98
2019-04-28T07:42:50.183Z,12.68
2019-04-28T07:45:21.483Z,9.48
2019-04-28T07:47:52.806Z,11.60
2019-04-28T07:50:24.222Z,10.35
2019-04-28T07:52:56.630Z,8.83
2019-04-28T07:55:28.072Z,11.15
2019-04-28T07:58:00.614Z,12.70
2019-04-28T08:00:33.121Z,10.20
2019-04-28T08:03:04.647Z,10.88
2019-04-28T08:05:35.991Z,11.10
2019-04-28T08:08:07.370Z,10.32
2019-04-28T08:10:38.839Z,10.03
2019-04-28T08:13:10.421Z,11.03
2019-04-28T08:15:44.234Z,10.63
2019-04-28T08:18:15.670Z,10.82
2019-04-28T08:20:47.259Z,10.70
2019-04-28T08:23:18.660Z,9.70
2019-04-28T08:25:49.883Z,10.28
2019-04-28T08:28:21.090Z,12.43
2019-04-28T08:30:52.532Z,10.60
2019-04-28T08:33:28.100Z,10.00
2019-04-28T08:35:59.406Z,13.80
2019-04-28T08:38:31.785Z,13.85
2019-04-28T08:41:03.228Z,10.10
2019-04-28T08:43:34.666Z,12.30
2019-04-28T08:46:06.225Z,11.73
2019-04-28T08:48:37.538Z,11.38
2019-04-28T08:51:08.979Z,12.73
2019-04-28T08:53:40.313Z,13.18
2019-04-28T08:56:11.939Z,9.98
2019-04-28T08:58:47.329Z,12.63
2019-04-28T09:01:18.882Z,10.45
2019-04-28T09:03:50.134Z,12.65
2019-04-28T09:06:21.372Z,10.78
2019-04-28T09:08:53.011Z,11.45
2019-04-28T09:11:24.596Z,9.50
2019-04-28T09:13:55.998Z,11.20
2019-04-28T09:16:27.368Z,11.80
2019-04-28T09:18:58.924Z,9.75
2019-04-28T09:21:31.422Z,9.00
2019-04-28T09:24:03.015Z,11.00
2019-04-28T09:26:36.898Z,11.55
2019-04-28T09:29:07.399Z,9.15
2019-04-28T09:31:42.465Z,10.80
2019-04-28T09:34:12.733Z,12.63
2019-04-28T09:36:44.187Z,9.90
2019-04-28T09:39:16.809Z,9.40
2019-04-28T09:41:49.287Z,10.38
2019-04-28T09:44:21.388Z,15.58
2019-04-28T09:46:53.327Z,15.55
2019-04-28T09:49:24.827Z,13.60
2019-04-28T09:51:56.355Z,10.60
2019-04-28T09:54:30.429Z,12.90
2019-04-28T09:57:01.657Z,9.28
2019-04-28T09:59:33.190Z,10.03
2019-04-28T10:02:04.739Z,11.80
2019-04-28T10:04:41.591Z,10.05
2019-04-28T10:07:09.907Z,17.37
2019-04-28T10:09:41.220Z,23.12
2019-04-28T10:12:26.551Z,27.48
2019-04-28T10:14:45.390Z,22.73
2019-04-28T10:17:16.711Z,27.60
2019-04-28T10:19:48.086Z,22.32
2019-04-28T10:22:19.624Z,20.27
2019-04-28T10:24:53.442Z,25.15
2019-04-28T10:27:23.773Z,21.48
2019-04-28T10:29:55.241Z,23.55
2019-04-28T10:32:27.538Z,27.07
2019-04-28T10:34:58.984Z,34.13
2019-04-28T10:37:30.316Z,26.48
2019-04-28T10:40:02.932Z,24.10
2019-04-28T10:42:34.210Z,26.60
2019-04-28T10:45:07.000Z,27.27
2019-04-28T10:47:38.448Z,25.40
2019-04-28T10:50:10.552Z,24.20
2019-04-28T10:52:41.714Z,24.90
2019-04-28T10:55:13.180Z,26.62
2019-04-28T10:57:44.591Z,27.48
2019-04-28T11:00:17.410Z,27.42
2019-04-28T11:02:48.750Z,28.42
2019-04-28T11:05:21.146Z,25.95
2019-04-28T11:07:52.906Z,26.75
2019-04-28T11:10:24.473Z,28.75
2019-04-28T11:12:58.369Z,27.32
2019-04-28T11:15:30.015Z,29.95
2019-04-28T11:18:01.468Z,28.85
2019-04-28T11:20:33.085Z,27.73
2019-04-28T11:23:04.332Z,30.23
2019-04-28T11:25:35.773Z,27.60
2019-04-28T11:28:07.504Z,28.30
2019-04-28T11:30:38.902Z,25.80
2019-04-28T11:33:11.731Z,27.35
2019-04-28T11:35:44.583Z,25.62
2019-04-28T11:38:16.003Z,26.85
2019-04-28T11:40:47.493Z,26.07
2019-04-28T11:43:18.848Z,25.95
2019-04-28T11:45:50.171Z,23.90
2019-04-28T11:48:21.820Z,23.75
2019-04-28T11:50:53.225Z,24.43
2019-04-28T11:53:24.640Z,24.82
2019-04-28T11:55:56.133Z,25.95
2019-04-28T11:58:27.486Z,22.30
2019-04-28T12:00:59.278Z,26.90
2019-04-28T12:03:30.593Z,23.40
2019-04-28T12:06:02.038Z,24.32
2019-04-28T12:08:33.508Z,24.57
2019-04-28T12:11:09.640Z,25.02
2019-04-28T12:13:43.951Z,26.35
2019-04-28T12:16:16.521Z,25.72
2019-04-28T12:18:47.628Z,29.10
2019-04-28T12:21:19.181Z,30.25
2019-04-28T12:23:50.531Z,32.48
2019-04-28T12:26:22.045Z,31.62
2019-04-28T12:28:53.386Z,32.95
2019-04-28T12:31:24.743Z,34.45
2019-04-28T12:33:56.124Z,34.35
2019-04-28T12:36:27.760Z,29.15
2019-04-28T12:38:59.161Z,28.83
2019-04-28T12:41:30.560Z,31.12
2019-04-28T12:44:01.912Z,28.80
2019-04-28T12:46:33.247Z,27.65
2019-04-28T12:49:05.905Z,28.25
2019-04-28T12:51:37.426Z,28.07
2019-04-28T12:54:10.050Z,29.00
2019-04-28T12:56:41.344Z,28.57
2019-04-28T12:59:14.004Z,30.37
2019-04-28T13:01:46.611Z,28.95
2019-04-28T13:04:18.932Z,26.48
2019-04-28T13:06:51.779Z,27.25
2019-04-28T13:09:23.197Z,30.55
2019-04-28T13:11:54.647Z,27.82
2019-04-28T13:14:25.975Z,37.88
2019-04-28T13:16:57.773Z,31.50
2019-04-28T13:19:29.192Z,31.75
2019-04-28T13:22:00.624Z,33.95
2019-04-28T13:24:32.340Z,28.23
2019-04-28T13:27:03.860Z,23.38
2019-04-28T13:29:35.185Z,25.65
2019-04-28T13:32:06.603Z,24.82
2019-04-28T13:34:38.992Z,26.52
2019-04-28T13:37:10.649Z,19.65
2019-04-28T13:39:43.139Z,16.32
2019-04-28T13:42:14.588Z,17.62
2019-04-28T13:44:46.951Z,14.00
2019-04-28T13:47:18.542Z,14.63
2019-04-28T13:50:03.814Z,11.35
2019-04-28T13:52:39.483Z,12.98
2019-04-28T13:55:12.329Z,11.00
2019-04-28T13:57:43.659Z,10.78
2019-04-28T14:00:16.452Z,8.28
2019-04-28T14:02:48.992Z,9.83
2019-04-28T14:05:22.516Z,9.50
2019-04-28T14:07:58.729Z,10.20
2019-04-28T14:10:29.325Z,10.80
2019-04-28T14:13:28.068Z,9.35
2019-04-28T14:19:06.669Z,15.20
2019-04-28T14:21:37.930Z,10.55
2019-04-28T14:24:09.222Z,10.20
2019-04-28T14:26:40.643Z,8.85
2019-04-28T14:29:12.275Z,11.83
2019-04-28T14:31:50.465Z,9.80
2019-04-28T14:34:21.731Z,14.98
2019-04-28T14:36:57.659Z,10.65
2019-04-28T14:42:25.713Z,9.75
2019-04-28T14:45:05.189Z,15.43
2019-04-28T14:47:40.409Z,11.00
2019-04-28T14:50:12.229Z,9.28
2019-04-28T14:52:47.719Z,9.08
2019-04-28T14:55:19.490Z,9.98
2019-04-28T14:57:50.701Z,7.55
2019-04-28T15:00:23.394Z,8.60
2019-04-28T15:02:58.747Z,9.50
2019-04-28T15:05:29.961Z,11.95
2019-04-28T15:08:21.537Z,7.90
2019-04-28T15:11:18.107Z,10.58
2019-04-28T15:13:45.051Z,10.18
2019-04-28T15:16:20.375Z,11.78
2019-04-28T15:18:55.441Z,13.10
2019-04-28T15:21:26.872Z,8.75
2019-04-28T15:26:49.183Z,9.00
2019-04-28T15:29:28.007Z,11.57
2019-04-28T15:31:59.340Z,13.38
2019-04-28T15:34:31.801Z,15.63
2019-04-28T15:37:09.828Z,9.80
2019-04-28T15:39:36.924Z,9.75
2019-04-28T15:42:08.351Z,13.45
2019-04-28T15:44:49.386Z,11.68
2019-04-28T15:50:20.248Z,11.00
2019-04-28T15:52:51.686Z,14.58
2019-04-28T15:55:24.212Z,11.55
2019-04-28T15:57:55.613Z,13.08
2019-04-28T16:00:27.054Z,12.15
2019-04-28T16:02:58.296Z,11.80
2019-04-28T16:05:29.630Z,12.35
2019-04-28T16:08:00.962Z,11.53
2019-04-28T16:10:32.312Z,12.18
2019-04-28T16:13:03.670Z,13.22
2019-04-28T16:15:35.084Z,11.97
2019-04-28T16:18:06.621Z,14.07
2019-04-28T16:20:37.901Z,14.43
2019-04-28T16:23:09.465Z,14.03
2019-04-28T16:25:40.958Z,13.15
2019-04-28T16:28:12.508Z,15.72
2019-04-28T16:30:43.802Z,15.50
2019-04-28T16:33:30.165Z,12.33
2019-04-28T16:36:01.495Z,12.03
2019-04-28T16:38:32.813Z,16.15
2019-04-28T16:41:04.986Z,13.62
2019-04-28T16:43:36.948Z,14.87
2019-04-28T16:46:08.450Z,14.25
2019-04-28T16:48:39.988Z,17.07
2019-04-28T16:51:14.398Z,14.28
2019-04-28T16:53:48.806Z,13.75
2019-04-28T16:56:20.634Z,12.20
2019-04-28T16:58:53.151Z,13.43
2019-04-28T17:01:25.652Z,12.68
2019-04-28T17:03:57.188Z,15.05
2019-04-28T17:06:28.714Z,12.47
2019-04-28T17:09:00.152Z,12.23
2019-04-28T17:11:31.617Z,11.80
2019-04-28T17:14:02.944Z,13.18
2019-04-28T17:16:34.222Z,12.75
2019-04-28T17:19:05.707Z,16.07
2019-04-28T17:21:37.251Z,12.93
2019-04-28T17:24:08.885Z,14.75
2019-04-28T17:26:40.305Z,15.48
2019-04-28T17:29:11.642Z,15.03
2019-04-28T17:31:44.061Z,16.70
2019-04-28T17:34:15.538Z,14.58
2019-04-28T17:36:47.204Z,11.12
2019-04-28T17:39:19.943Z,15.10
2019-04-28T17:41:51.771Z,15.90
2019-04-28T17:44:23.177Z,11.40
2019-04-28T17:46:54.620Z,13.88
2019-04-28T17:49:27.242Z,14.50
2019-04-28T17:51:58.765Z,15.80
2019-04-28T17:54:30.206Z,21.17
2019-04-28T17:57:01.739Z,19.30
2019-04-28T17:59:32.984Z,16.23
2019-04-28T18:02:05.427Z,20.27
2019-04-28T18:04:37.742Z,24.55
2019-04-28T18:07:10.275Z,19.12
2019-04-28T18:09:41.714Z,17.82
2019-04-28T18:12:13.042Z,20.23
2019-04-28T18:14:45.765Z,24.07
2019-04-28T18:17:18.422Z,19.05
2019-04-28T18:19:49.825Z,19.80
2019-04-28T18:22:54.609Z,20.40
2019-04-28T18:24:56.865Z,20.77
2019-04-28T18:27:28.093Z,26.95
2019-04-28T18:29:59.538Z,23.92
2019-04-28T18:32:31.958Z,25.12
2019-04-28T18:35:05.001Z,22.13
2019-04-28T18:37:37.620Z,23.27
2019-04-28T18:40:11.140Z,25.10
2019-04-28T18:42:43.626Z,22.13
2019-04-28T18:45:15.566Z,23.57
2019-04-28T18:47:46.978Z,21.95
2019-04-28T18:50:18.585Z,23.10
2019-04-28T18:52:52.715Z,21.40
2019-04-28T18:55:24.392Z,21.48
2019-04-28T18:57:56.036Z,20.08
2019-04-28T19:00:28.536Z,19.55
2019-04-28T19:03:11.191Z,19.32
2019-04-28T19:05:44.124Z,19.95
2019-04-28T19:08:17.624Z,20.43
2019-04-28T19:10:50.115Z,20.62
2019-04-28T19:13:22.549Z,20.48
2019-04-28T19:15:55.077Z,21.65
2019-04-28T19:18:26.250Z,22.02
2019-04-28T19:20:57.714Z,19.60
2019-04-28T19:23:29.174Z,23.85
2019-04-28T19:26:01.821Z,19.55
2019-04-28T19:28:33.275Z,25.15
2019-04-28T19:31:04.606Z,19.40
2019-04-28T19:33:35.888Z,19.75
2019-04-28T19:36:07.489Z,20.00
2019-04-28T19:38:40.487Z,17.87
2019-04-28T19:41:11.627Z,19.45
2019-04-28T19:43:42.941Z,17.32
2019-04-28T19:46:15.561Z,18.02
2019-04-28T19:48:54.208Z,20.25
2019-04-28T19:51:31.073Z,19.07
2019-04-28T19:53:52.995Z,17.90
2019-04-28T19:56:25.428Z,18.50
2019-04-28T19:58:58.025Z,17.62
2019-04-28T20:01:30.704Z,17.35
2019-04-28T20:04:02.154Z,18.23
2019-04-28T20:06:33.597Z,21.20
2019-04-28T20:09:06.083Z,19.10
2019-04-28T20:11:37.724Z,19.37
2019-04-28T20:14:09.762Z,16.97
2019-04-28T20:16:41.397Z,16.90
2019-04-28T20:19:12.823Z,17.80
2019-04-28T20:21:44.209Z,18.35
2019-04-28T20:24:15.611Z,18.87
2019-04-28T20:26:46.921Z,23.40
2019-04-28T20:29:18.276Z,14.87
2019-04-28T20:31:49.498Z,17.52
2019-04-28T20:34:21.152Z,17.00
2019-04-28T20:36:53.630Z,15.95
2019-04-28T20:39:26.139Z,18.17
2019-04-28T20:41:58.686Z,16.77
2019-04-28T20:44:30.062Z,14.70
2019-04-28T20:47:01.626Z,16.17
2019-04-28T20:49:33.159Z,15.88
2019-04-28T20:52:04.702Z,18.50
2019-04-28T20:54:36.242Z,16.82
2019-04-28T20:57:07.472Z,16.20
2019-04-28T20:59:38.922Z,16.10
2019-04-28T21:02:10.375Z,14.93
2019-04-28T21:04:41.806Z,14.58
2019-04-28T21:07:13.062Z,17.02
2019-04-28T21:09:44.535Z,16.90
2019-04-28T21:12:15.969Z,16.70
2019-04-28T21:14:47.254Z,17.27
2019-04-28T21:17:19.505Z,17.62
2019-04-28T21:19:50.775Z,17.30
2019-04-28T21:22:22.202Z,16.97
2019-04-28T21:24:53.543Z,16.95
2019-04-28T21:27:24.997Z,19.75
2019-04-28T21:29:56.472Z,15.05
2019-04-28T21:32:27.784Z,17.15
2019-04-28T21:34:59.739Z,16.23
2019-04-28T21:37:30.986Z,14.53
2019-04-28T21:40:03.274Z,19.87
2019-04-28T21:42:35.926Z,17.37
2019-04-28T21:45:17.357Z,14.63
2019-04-28T21:47:48.843Z,18.15
2019-04-28T21:50:20.178Z,17.20
2019-04-28T21:52:51.558Z,15.05
2019-04-28T21:55:22.906Z,16.30
2019-04-28T21:57:54.338Z,21.35
2019-04-28T22:00:29.251Z,15.18
2019-04-28T22:03:00.455Z,19.00
2019-04-28T22:05:31.782Z,15.93
2019-04-28T22:08:03.132Z,15.78
2019-04-28T22:10:34.482Z,14.38
2019-04-28T22:13:05.727Z,16.35
2019-04-28T22:15:37.097Z,14.90
2019-04-28T22:18:09.351Z,16.37
2019-04-28T22:20:40.647Z,16.20
2019-04-28T22:23:18.679Z,15.78
2019-04-28T22:25:46.048Z,13.35
2019-04-28T22:28:17.449Z,15.00
2019-04-28T22:30:48.889Z,15.23
2019-04-28T22:33:20.342Z,14.70
2019-04-28T22:35:51.796Z,12.58
2019-04-28T22:38:23.253Z,14.28
2019-04-28T22:40:54.500Z,12.78
2019-04-28T22:43:25.744Z,14.90
2019-04-28T22:45:57.107Z,13.22
2019-04-28T22:48:28.645Z,13.88
2019-04-28T22:51:00.151Z,13.85
2019-04-28T22:53:32.901Z,17.80
2019-04-28T22:56:05.372Z,12.82
2019-04-28T22:58:37.968Z,14.68
2019-04-28T23:01:10.544Z,14.28
2019-04-28T23:03:43.380Z,16.30
2019-04-28T23:06:15.777Z,15.40
2019-04-28T23:08:47.352Z,23.50
2019-04-28T23:11:18.689Z,14.87
2019-04-28T23:13:50.047Z,15.93
2019-04-28T23:16:21.808Z,19.15
2019-04-28T23:18:53.748Z,18.73
2019-04-28T23:21:26.310Z,15.03
2019-04-28T23:23:57.780Z,15.72
2019-04-28T23:26:28.977Z,16.37
2019-04-28T23:29:00.329Z,15.45
2019-04-28T23:31:31.619Z,17.62
2019-04-28T23:34:03.197Z,17.07
2019-04-28T23:36:34.518Z,14.85
2019-04-28T23:39:07.731Z,17.23
2019-04-28T23:41:40.409Z,16.73
2019-04-28T23:44:11.841Z,20.27
2019-04-28T23:46:44.376Z,24.02
2019-04-28T23:49:21.510Z,19.42
2019-04-28T23:51:54.047Z,15.88
2019-04-28T23:54:26.725Z,15.88
2019-04-28T23:57:01.221Z,16.80
2019-04-28T23:59:32.484Z,18.32
